sensor_id;sensor_type;location;lat;lon;timestamp;temperature;humidity
38902;DHT22;24661;53.566;9.910;2022-08-02T00:02:18;12.70;99.90
38902;DHT22;24661;53.566;9.910;2022-08-02T00:04:45;12.70;99.90
38902;DHT22;24661;53.566;9.910;2022-08-02T00:07:11;12.70;99.90
38902;DHT22;24661;53.566;9.910;2022-08-02T00:09:37;12.70;99.90
38902;DHT22;24661;53.566;9.910;2022-08-02T00:12:03;12.60;99.90
38902;DHT22;24661;53.566;9.910;2022-08-02T00:14:29;12.60;99.90
38902;DHT22;24661;53.566;9.910;2022-08-02T00:16:55;12.70;99.90
38902;DHT22;24661;53.566;9.910;2022-08-02T00:19:20;12.60;99.90
38902;DHT22;24661;53.566;9.910;2022-08-02T00:21:46;12.70;99.90
38902;DHT22;24661;53.566;9.910;2022-08-02T00:24:12;12.60;99.90
38902;DHT22;24661;53.566;9.910;2022-08-02T00:26:38;12.60;99.90
38902;DHT22;24661;53.566;9.910;2022-08-02T00:29:03;12.60;99.90
38902;DHT22;24661;53.566;9.910;2022-08-02T00:31:29;12.70;99.90
38902;DHT22;24661;53.566;9.910;2022-08-02T00:33:55;12.40;99.90
38902;DHT22;24661;53.566;9.910;2022-08-02T00:36:20;12.40;99.90
38902;DHT22;24661;53.566;9.910;2022-08-02T00:38:46;12.30;99.90
38902;DHT22;24661;53.566;9.910;2022-08-02T00:41:14;12.30;99.90
38902;DHT22;24661;53.566;9.910;2022-08-02T00:43:42;12.20;99.90
38902;DHT22;24661;53.566;9.910;2022-08-02T00:46:07;12.10;99.90
38902;DHT22;24661;53.566;9.910;2022-08-02T00:48:33;12.10;99.90
38902;DHT22;24661;53.566;9.910;2022-08-02T00:50:59;12.10;99.90
38902;DHT22;24661;53.566;9.910;2022-08-02T00:53:24;12.10;99.90
38902;DHT22;24661;53.566;9.910;2022-08-02T00:55:50;12.10;99.90
38902;DHT22;24661;53.566;9.910;2022-08-02T00:58:16;12.10;99.90
38902;DHT22;24661;53.566;9.910;2022-08-02T01:00:41;12.10;99.90
38902;DHT22;24661;53.566;9.910;2022-08-02T01:03:07;12.10;99.90
38902;DHT22;24661;53.566;9.910;2022-08-02T01:05:32;12.00;99.90
38902;DHT22;24661;53.566;9.910;2022-08-02T01:07:58;12.00;99.90
38902;DHT22;24661;53.566;9.910;2022-08-02T01:10:24;12.00;99.90
38902;DHT22;24661;53.566;9.910;2022-08-02T01:12:49;12.00;99.90
38902;DHT22;24661;53.566;9.910;2022-08-02T01:15:15;12.00;99.90
38902;DHT22;24661;53.566;9.910;2022-08-02T01:18:14;12.00;99.90
38902;DHT22;24661;53.566;9.910;2022-08-02T01:26:38;12.00;99.90
38902;DHT22;24661;53.566;9.910;2022-08-02T01:29:28;11.90;99.90
38902;DHT22;24661;53.566;9.910;2022-08-02T01:32:11;11.80;99.90
38902;DHT22;24661;53.566;9.910;2022-08-02T01:34:46;11.70;99.90
38902;DHT22;24661;53.566;9.910;2022-08-02T01:37:18;11.80;99.90
38902;DHT22;24661;53.566;9.910;2022-08-02T01:39:47;11.80;99.90
38902;DHT22;24661;53.566;9.910;2022-08-02T01:42:16;11.80;99.90
38902;DHT22;24661;53.566;9.910;2022-08-02T01:44:44;11.80;99.90
38902;DHT22;24661;53.566;9.910;2022-08-02T01:47:22;11.70;99.90
38902;DHT22;24661;53.566;9.910;2022-08-02T01:49:50;11.70;99.90
38902;DHT22;24661;53.566;9.910;2022-08-02T01:52:18;11.70;99.90
38902;DHT22;24661;53.566;9.910;2022-08-02T01:57:29;11.70;99.90
38902;DHT22;24661;53.566;9.910;2022-08-02T01:59:57;11.70;99.90
38902;DHT22;24661;53.566;9.910;2022-08-02T02:02:26;11.70;99.90
38902;DHT22;24661;53.566;9.910;2022-08-02T02:04:55;11.60;99.90
38902;DHT22;24661;53.566;9.910;2022-08-02T02:07:22;11.60;99.90
38902;DHT22;24661;53.566;9.910;2022-08-02T02:09:49;11.60;99.90
38902;DHT22;24661;53.566;9.910;2022-08-02T02:12:17;11.60;99.90
38902;DHT22;24661;53.566;9.910;2022-08-02T02:14:43;11.50;99.90
38902;DHT22;24661;53.566;9.910;2022-08-02T02:17:10;11.50;99.90
38902;DHT22;24661;53.566;9.910;2022-08-02T02:19:38;11.50;99.90
38902;DHT22;24661;53.566;9.910;2022-08-02T02:22:04;11.50;99.90
38902;DHT22;24661;53.566;9.910;2022-08-02T02:24:30;11.40;99.90
38902;DHT22;24661;53.566;9.910;2022-08-02T02:26:58;11.50;99.90
38902;DHT22;24661;53.566;9.910;2022-08-02T02:29:28;11.50;99.90
38902;DHT22;24661;53.566;9.910;2022-08-02T02:31:55;11.50;99.90
38902;DHT22;24661;53.566;9.910;2022-08-02T02:34:41;11.40;99.90
38902;DHT22;24661;53.566;9.910;2022-08-02T02:37:16;11.30;99.90
38902;DHT22;24661;53.566;9.910;2022-08-02T02:39:44;11.20;99.90
38902;DHT22;24661;53.566;9.910;2022-08-02T02:42:14;11.20;99.90
38902;DHT22;24661;53.566;9.910;2022-08-02T02:44:41;11.30;99.90
38902;DHT22;24661;53.566;9.910;2022-08-02T02:47:09;11.30;99.90
38902;DHT22;24661;53.566;9.910;2022-08-02T02:49:36;11.30;99.90
38902;DHT22;24661;53.566;9.910;2022-08-02T02:52:04;11.30;99.90
38902;DHT22;24661;53.566;9.910;2022-08-02T02:54:32;11.30;99.90
38902;DHT22;24661;53.566;9.910;2022-08-02T02:56:58;11.30;99.90
38902;DHT22;24661;53.566;9.910;2022-08-02T02:59:25;11.30;99.90
38902;DHT22;24661;53.566;9.910;2022-08-02T03:01:52;11.20;99.90
38902;DHT22;24661;53.566;9.910;2022-08-02T03:04:19;11.30;99.90
38902;DHT22;24661;53.566;9.910;2022-08-02T03:06:46;11.30;99.90
38902;DHT22;24661;53.566;9.910;2022-08-02T03:09:11;11.40;99.90
38902;DHT22;24661;53.566;9.910;2022-08-02T03:11:38;11.40;99.90
38902;DHT22;24661;53.566;9.910;2022-08-02T03:14:06;11.30;99.90
38902;DHT22;24661;53.566;9.910;2022-08-02T03:16:32;11.40;99.90
38902;DHT22;24661;53.566;9.910;2022-08-02T03:19:01;11.40;99.90
38902;DHT22;24661;53.566;9.910;2022-08-02T03:21:27;11.40;99.90
38902;DHT22;24661;53.566;9.910;2022-08-02T03:23:53;11.40;99.90
38902;DHT22;24661;53.566;9.910;2022-08-02T03:26:18;11.40;99.90
38902;DHT22;24661;53.566;9.910;2022-08-02T03:28:44;11.50;99.90
38902;DHT22;24661;53.566;9.910;2022-08-02T03:31:09;11.50;99.90
38902;DHT22;24661;53.566;9.910;2022-08-02T03:33:36;11.50;99.90
38902;DHT22;24661;53.566;9.910;2022-08-02T03:36:07;11.50;99.90
38902;DHT22;24661;53.566;9.910;2022-08-02T03:38:35;11.50;99.90
38902;DHT22;24661;53.566;9.910;2022-08-02T03:41:03;11.50;99.90
38902;DHT22;24661;53.566;9.910;2022-08-02T03:43:29;11.60;99.90
38902;DHT22;24661;53.566;9.910;2022-08-02T03:45:56;11.60;99.90
38902;DHT22;24661;53.566;9.910;2022-08-02T03:48:22;11.60;99.90
38902;DHT22;24661;53.566;9.910;2022-08-02T03:50:49;11.60;99.90
38902;DHT22;24661;53.566;9.910;2022-08-02T03:53:16;11.50;99.90
38902;DHT22;24661;53.566;9.910;2022-08-02T03:55:43;11.50;99.90
38902;DHT22;24661;53.566;9.910;2022-08-02T03:58:09;11.50;99.90
38902;DHT22;24661;53.566;9.910;2022-08-02T04:00:40;11.50;99.90
38902;DHT22;24661;53.566;9.910;2022-08-02T04:03:06;11.60;99.90
38902;DHT22;24661;53.566;9.910;2022-08-02T04:05:31;11.60;99.90
38902;DHT22;24661;53.566;9.910;2022-08-02T04:07:57;11.60;99.90
38902;DHT22;24661;53.566;9.910;2022-08-02T04:10:23;11.60;99.90
38902;DHT22;24661;53.566;9.910;2022-08-02T04:12:48;11.60;99.90
38902;DHT22;24661;53.566;9.910;2022-08-02T04:15:14;11.60;99.90
38902;DHT22;24661;53.566;9.910;2022-08-02T04:17:44;11.60;99.90
38902;DHT22;24661;53.566;9.910;2022-08-02T04:20:19;11.60;99.90
38902;DHT22;24661;53.566;9.910;2022-08-02T04:22:59;11.60;99.90
38902;DHT22;24661;53.566;9.910;2022-08-02T04:25:26;11.60;99.90
38902;DHT22;24661;53.566;9.910;2022-08-02T04:27:52;11.60;99.90
38902;DHT22;24661;53.566;9.910;2022-08-02T04:30:18;11.50;99.90
38902;DHT22;24661;53.566;9.910;2022-08-02T04:32:45;11.50;99.90
38902;DHT22;24661;53.566;9.910;2022-08-02T04:35:12;11.60;99.90
38902;DHT22;24661;53.566;9.910;2022-08-02T04:37:38;11.50;99.90
38902;DHT22;24661;53.566;9.910;2022-08-02T04:40:08;11.50;99.90
38902;DHT22;24661;53.566;9.910;2022-08-02T04:42:34;11.50;99.90
38902;DHT22;24661;53.566;9.910;2022-08-02T04:44:59;11.50;99.90
38902;DHT22;24661;53.566;9.910;2022-08-02T04:47:26;11.50;99.90
38902;DHT22;24661;53.566;9.910;2022-08-02T04:49:52;11.50;99.90
38902;DHT22;24661;53.566;9.910;2022-08-02T04:52:19;11.60;99.90
38902;DHT22;24661;53.566;9.910;2022-08-02T04:54:44;11.50;99.90
38902;DHT22;24661;53.566;9.910;2022-08-02T04:57:10;10.00;99.90
38902;DHT22;24661;53.566;9.910;2022-08-02T04:59:55;11.50;99.90
38902;DHT22;24661;53.566;9.910;2022-08-02T05:02:21;11.40;99.90
38902;DHT22;24661;53.566;9.910;2022-08-02T05:04:46;11.50;99.90
38902;DHT22;24661;53.566;9.910;2022-08-02T05:07:12;11.50;99.90
38902;DHT22;24661;53.566;9.910;2022-08-02T05:09:38;11.60;99.90
38902;DHT22;24661;53.566;9.910;2022-08-02T05:12:03;11.50;99.90
38902;DHT22;24661;53.566;9.910;2022-08-02T05:14:29;11.70;99.90
38902;DHT22;24661;53.566;9.910;2022-08-02T05:16:55;11.80;99.90
38902;DHT22;24661;53.566;9.910;2022-08-02T05:19:20;12.00;99.90
38902;DHT22;24661;53.566;9.910;2022-08-02T05:21:46;12.00;99.90
38902;DHT22;24661;53.566;9.910;2022-08-02T05:24:11;12.00;99.90
38902;DHT22;24661;53.566;9.910;2022-08-02T05:26:37;12.10;99.90
38902;DHT22;24661;53.566;9.910;2022-08-02T05:29:04;12.20;99.90
38902;DHT22;24661;53.566;9.910;2022-08-02T05:31:30;12.30;99.90
38902;DHT22;24661;53.566;9.910;2022-08-02T05:33:56;12.40;99.90
38902;DHT22;24661;53.566;9.910;2022-08-02T05:36:21;12.50;99.90
38902;DHT22;24661;53.566;9.910;2022-08-02T05:38:47;12.60;99.90
38902;DHT22;24661;53.566;9.910;2022-08-02T05:41:12;12.70;99.90
38902;DHT22;24661;53.566;9.910;2022-08-02T05:43:38;12.90;99.90
38902;DHT22;24661;53.566;9.910;2022-08-02T05:46:03;12.80;99.90
38902;DHT22;24661;53.566;9.910;2022-08-02T05:48:29;12.90;99.90
38902;DHT22;24661;53.566;9.910;2022-08-02T05:51:03;13.10;99.90
38902;DHT22;24661;53.566;9.910;2022-08-02T05:56:37;13.30;99.90
38902;DHT22;24661;53.566;9.910;2022-08-02T05:59:12;13.40;99.90
38902;DHT22;24661;53.566;9.910;2022-08-02T06:01:42;13.40;99.90
38902;DHT22;24661;53.566;9.910;2022-08-02T06:04:10;13.50;99.90
38902;DHT22;24661;53.566;9.910;2022-08-02T06:06:42;13.60;99.90
38902;DHT22;24661;53.566;9.910;2022-08-02T06:09:13;13.60;99.90
38902;DHT22;24661;53.566;9.910;2022-08-02T06:11:44;13.70;99.90
38902;DHT22;24661;53.566;9.910;2022-08-02T06:14:11;13.80;99.90
38902;DHT22;24661;53.566;9.910;2022-08-02T06:16:38;13.90;99.90
38902;DHT22;24661;53.566;9.910;2022-08-02T06:19:04;15.20;99.90
38902;DHT22;24661;53.566;9.910;2022-08-02T06:21:30;14.10;99.90
38902;DHT22;24661;53.566;9.910;2022-08-02T06:23:57;14.20;99.90
38902;DHT22;24661;53.566;9.910;2022-08-02T06:26:26;14.30;99.90
38902;DHT22;24661;53.566;9.910;2022-08-02T06:28:54;14.30;99.90
38902;DHT22;24661;53.566;9.910;2022-08-02T06:31:20;14.40;99.90
38902;DHT22;24661;53.566;9.910;2022-08-02T06:33:46;14.50;99.90
38902;DHT22;24661;53.566;9.910;2022-08-02T06:36:39;14.60;99.90
38902;DHT22;24661;53.566;9.910;2022-08-02T06:39:20;14.70;99.90
38902;DHT22;24661;53.566;9.910;2022-08-02T06:41:51;14.70;99.90
38902;DHT22;24661;53.566;9.910;2022-08-02T06:44:20;14.80;99.90
38902;DHT22;24661;53.566;9.910;2022-08-02T06:46:46;14.90;99.90
38902;DHT22;24661;53.566;9.910;2022-08-02T06:49:12;15.00;99.90
38902;DHT22;24661;53.566;9.910;2022-08-02T06:51:39;15.00;99.90
38902;DHT22;24661;53.566;9.910;2022-08-02T06:54:05;15.10;99.90
38902;DHT22;24661;53.566;9.910;2022-08-02T06:56:30;15.20;99.90
38902;DHT22;24661;53.566;9.910;2022-08-02T06:58:56;15.30;99.90
38902;DHT22;24661;53.566;9.910;2022-08-02T07:01:21;15.40;99.90
38902;DHT22;24661;53.566;9.910;2022-08-02T07:03:47;15.40;99.90
38902;DHT22;24661;53.566;9.910;2022-08-02T07:06:12;15.40;99.90
38902;DHT22;24661;53.566;9.910;2022-08-02T07:08:38;15.50;99.90
38902;DHT22;24661;53.566;9.910;2022-08-02T07:11:08;15.60;99.90
38902;DHT22;24661;53.566;9.910;2022-08-02T07:13:34;15.70;99.90
38902;DHT22;24661;53.566;9.910;2022-08-02T07:16:01;15.70;99.90
38902;DHT22;24661;53.566;9.910;2022-08-02T07:18:27;15.80;99.90
38902;DHT22;24661;53.566;9.910;2022-08-02T07:20:53;15.80;99.90
38902;DHT22;24661;53.566;9.910;2022-08-02T07:23:19;15.90;99.90
38902;DHT22;24661;53.566;9.910;2022-08-02T07:25:46;16.00;99.90
38902;DHT22;24661;53.566;9.910;2022-08-02T07:28:13;16.00;99.90
38902;DHT22;24661;53.566;9.910;2022-08-02T07:30:42;16.10;99.90
38902;DHT22;24661;53.566;9.910;2022-08-02T07:33:10;16.30;99.90
38902;DHT22;24661;53.566;9.910;2022-08-02T07:35:35;16.40;99.90
38902;DHT22;24661;53.566;9.910;2022-08-02T07:38:01;16.50;99.90
38902;DHT22;24661;53.566;9.910;2022-08-02T07:40:27;16.60;99.90
38902;DHT22;24661;53.566;9.910;2022-08-02T07:42:54;16.70;99.90
38902;DHT22;24661;53.566;9.910;2022-08-02T07:45:21;16.80;99.90
38902;DHT22;24661;53.566;9.910;2022-08-02T07:47:47;16.90;99.90
38902;DHT22;24661;53.566;9.910;2022-08-02T07:50:15;16.90;99.90
38902;DHT22;24661;53.566;9.910;2022-08-02T07:52:42;16.90;99.90
38902;DHT22;24661;53.566;9.910;2022-08-02T07:55:09;17.00;99.90
38902;DHT22;24661;53.566;9.910;2022-08-02T07:57:35;17.00;99.90
38902;DHT22;24661;53.566;9.910;2022-08-02T08:00:05;17.10;99.90
38902;DHT22;24661;53.566;9.910;2022-08-02T08:02:31;17.20;99.90
38902;DHT22;24661;53.566;9.910;2022-08-02T08:04:56;17.30;99.90
38902;DHT22;24661;53.566;9.910;2022-08-02T08:07:22;17.40;99.90
38902;DHT22;24661;53.566;9.910;2022-08-02T08:09:48;17.40;99.90
38902;DHT22;24661;53.566;9.910;2022-08-02T08:12:16;17.50;99.90
38902;DHT22;24661;53.566;9.910;2022-08-02T08:14:42;17.60;99.90
38902;DHT22;24661;53.566;9.910;2022-08-02T08:17:08;17.70;99.90
38902;DHT22;24661;53.566;9.910;2022-08-02T08:19:34;17.70;99.90
38902;DHT22;24661;53.566;9.910;2022-08-02T08:22:00;17.80;99.90
38902;DHT22;24661;53.566;9.910;2022-08-02T08:24:26;17.80;99.90
38902;DHT22;24661;53.566;9.910;2022-08-02T08:26:53;17.80;99.90
38902;DHT22;24661;53.566;9.910;2022-08-02T08:29:19;17.90;99.90
38902;DHT22;24661;53.566;9.910;2022-08-02T08:31:44;18.10;99.90
38902;DHT22;24661;53.566;9.910;2022-08-02T08:34:10;18.00;99.90
38902;DHT22;24661;53.566;9.910;2022-08-02T08:36:37;18.00;99.90
38902;DHT22;24661;53.566;9.910;2022-08-02T08:39:03;18.20;99.90
38902;DHT22;24661;53.566;9.910;2022-08-02T08:41:29;18.20;99.90
38902;DHT22;24661;53.566;9.910;2022-08-02T08:43:54;17.80;99.90
38902;DHT22;24661;53.566;9.910;2022-08-02T08:46:26;18.50;99.90
38902;DHT22;24661;53.566;9.910;2022-08-02T08:48:57;18.50;99.90
38902;DHT22;24661;53.566;9.910;2022-08-02T08:51:29;18.70;99.90
38902;DHT22;24661;53.566;9.910;2022-08-02T08:53:56;18.90;99.90
38902;DHT22;24661;53.566;9.910;2022-08-02T08:56:32;19.00;99.90
38902;DHT22;24661;53.566;9.910;2022-08-02T08:58:59;19.00;99.90
38902;DHT22;24661;53.566;9.910;2022-08-02T09:01:24;19.10;99.90
38902;DHT22;24661;53.566;9.910;2022-08-02T09:03:50;19.20;99.90
38902;DHT22;24661;53.566;9.910;2022-08-02T09:06:16;19.50;99.90
38902;DHT22;24661;53.566;9.910;2022-08-02T09:08:42;19.50;99.90
38902;DHT22;24661;53.566;9.910;2022-08-02T09:11:15;19.60;99.90
38902;DHT22;24661;53.566;9.910;2022-08-02T09:13:58;19.40;99.90
38902;DHT22;24661;53.566;9.910;2022-08-02T09:16:35;19.60;99.90
38902;DHT22;24661;53.566;9.910;2022-08-02T09:19:22;19.80;99.90
38902;DHT22;24661;53.566;9.910;2022-08-02T09:22:00;19.70;99.90
38902;DHT22;24661;53.566;9.910;2022-08-02T09:24:26;19.70;99.90
38902;DHT22;24661;53.566;9.910;2022-08-02T09:26:52;19.90;99.90
38902;DHT22;24661;53.566;9.910;2022-08-02T09:29:21;19.80;99.90
38902;DHT22;24661;53.566;9.910;2022-08-02T09:31:47;20.00;99.90
38902;DHT22;24661;53.566;9.910;2022-08-02T09:34:13;20.10;99.90
38902;DHT22;24661;53.566;9.910;2022-08-02T09:36:43;20.10;99.90
38902;DHT22;24661;53.566;9.910;2022-08-02T09:39:12;22.70;99.90
38902;DHT22;24661;53.566;9.910;2022-08-02T09:41:40;19.40;99.90
38902;DHT22;24661;53.566;9.910;2022-08-02T09:44:08;20.20;99.90
38902;DHT22;24661;53.566;9.910;2022-08-02T09:46:43;20.20;99.90
38902;DHT22;24661;53.566;9.910;2022-08-02T09:49:11;20.20;99.90
38902;DHT22;24661;53.566;9.910;2022-08-02T09:51:50;20.30;99.90
38902;DHT22;24661;53.566;9.910;2022-08-02T09:59:13;20.50;99.90
38902;DHT22;24661;53.566;9.910;2022-08-02T10:01:39;20.50;99.90
38902;DHT22;24661;53.566;9.910;2022-08-02T10:04:07;20.60;99.90
38902;DHT22;24661;53.566;9.910;2022-08-02T10:06:36;20.60;99.90
38902;DHT22;24661;53.566;9.910;2022-08-02T10:09:02;20.80;99.90
38902;DHT22;24661;53.566;9.910;2022-08-02T10:11:28;20.90;99.90
38902;DHT22;24661;53.566;9.910;2022-08-02T10:13:54;20.90;99.90
38902;DHT22;24661;53.566;9.910;2022-08-02T10:16:21;21.00;99.90
38902;DHT22;24661;53.566;9.910;2022-08-02T10:18:51;21.10;99.90
38902;DHT22;24661;53.566;9.910;2022-08-02T10:21:57;21.10;99.90
38902;DHT22;24661;53.566;9.910;2022-08-02T10:24:30;21.20;99.90
38902;DHT22;24661;53.566;9.910;2022-08-02T10:26:57;21.20;99.90
38902;DHT22;24661;53.566;9.910;2022-08-02T10:29:29;21.30;99.90
38902;DHT22;24661;53.566;9.910;2022-08-02T10:32:10;21.40;99.90
38902;DHT22;24661;53.566;9.910;2022-08-02T10:37:09;21.60;99.90
38902;DHT22;24661;53.566;9.910;2022-08-02T10:39:43;21.60;99.90
38902;DHT22;24661;53.566;9.910;2022-08-02T10:42:09;21.60;99.90
38902;DHT22;24661;53.566;9.910;2022-08-02T10:44:36;21.60;99.90
38902;DHT22;24661;53.566;9.910;2022-08-02T10:47:19;21.80;99.90
38902;DHT22;24661;53.566;9.910;2022-08-02T10:49:58;21.80;99.90
38902;DHT22;24661;53.566;9.910;2022-08-02T10:52:28;21.90;99.90
38902;DHT22;24661;53.566;9.910;2022-08-02T10:54:59;21.90;99.90
38902;DHT22;24661;53.566;9.910;2022-08-02T10:57:28;22.00;99.90
38902;DHT22;24661;53.566;9.910;2022-08-02T11:00:10;22.10;99.90
38902;DHT22;24661;53.566;9.910;2022-08-02T11:02:41;22.10;99.90
38902;DHT22;24661;53.566;9.910;2022-08-02T11:05:09;22.20;99.90
38902;DHT22;24661;53.566;9.910;2022-08-02T11:07:37;22.20;99.90
38902;DHT22;24661;53.566;9.910;2022-08-02T11:10:33;22.30;99.90
38902;DHT22;24661;53.566;9.910;2022-08-02T11:13:12;22.40;99.90
38902;DHT22;24661;53.566;9.910;2022-08-02T11:16:03;22.50;99.90
38902;DHT22;24661;53.566;9.910;2022-08-02T11:21:27;22.70;99.90
38902;DHT22;24661;53.566;9.910;2022-08-02T11:23:54;22.90;99.90
38902;DHT22;24661;53.566;9.910;2022-08-02T11:29:03;22.80;99.90
38902;DHT22;24661;53.566;9.910;2022-08-02T11:31:36;22.80;99.90
38902;DHT22;24661;53.566;9.910;2022-08-02T11:34:03;23.00;99.90
38902;DHT22;24661;53.566;9.910;2022-08-02T11:36:29;23.10;99.90
38902;DHT22;24661;53.566;9.910;2022-08-02T11:39:19;23.20;99.90
38902;DHT22;24661;53.566;9.910;2022-08-02T11:41:55;23.30;99.90
38902;DHT22;24661;53.566;9.910;2022-08-02T11:44:22;23.30;99.90
38902;DHT22;24661;53.566;9.910;2022-08-02T11:47:01;23.40;99.90
38902;DHT22;24661;53.566;9.910;2022-08-02T11:49:27;23.50;99.90
38902;DHT22;24661;53.566;9.910;2022-08-02T11:51:54;23.50;99.90
38902;DHT22;24661;53.566;9.910;2022-08-02T11:54:34;23.60;99.90
38902;DHT22;24661;53.566;9.910;2022-08-02T11:59:41;23.70;99.90
38902;DHT22;24661;53.566;9.910;2022-08-02T12:02:08;23.80;99.90
38902;DHT22;24661;53.566;9.910;2022-08-02T12:04:34;23.90;99.90
38902;DHT22;24661;53.566;9.910;2022-08-02T12:07:00;23.90;99.90
38902;DHT22;24661;53.566;9.910;2022-08-02T12:09:27;24.00;99.90
38902;DHT22;24661;53.566;9.910;2022-08-02T12:11:54;24.00;99.90
38902;DHT22;24661;53.566;9.910;2022-08-02T12:14:21;24.80;99.90
38902;DHT22;24661;53.566;9.910;2022-08-02T12:16:47;24.10;99.90
38902;DHT22;24661;53.566;9.910;2022-08-02T12:19:32;24.10;99.90
38902;DHT22;24661;53.566;9.910;2022-08-02T12:22:21;24.20;99.90
38902;DHT22;24661;53.566;9.910;2022-08-02T12:24:50;24.40;99.90
38902;DHT22;24661;53.566;9.910;2022-08-02T12:27:36;24.50;99.90
38902;DHT22;24661;53.566;9.910;2022-08-02T12:30:07;24.50;99.90
38902;DHT22;24661;53.566;9.910;2022-08-02T12:32:34;24.40;99.90
38902;DHT22;24661;53.566;9.910;2022-08-02T12:35:05;24.40;99.90
38902;DHT22;24661;53.566;9.910;2022-08-02T12:37:32;24.60;99.90
38902;DHT22;24661;53.566;9.910;2022-08-02T12:39:58;24.60;99.90
38902;DHT22;24661;53.566;9.910;2022-08-02T12:42:54;24.90;99.90
38902;DHT22;24661;53.566;9.910;2022-08-02T12:45:20;25.00;99.90
38902;DHT22;24661;53.566;9.910;2022-08-02T12:47:48;25.00;99.90
38902;DHT22;24661;53.566;9.910;2022-08-02T12:50:23;25.10;99.90
38902;DHT22;24661;53.566;9.910;2022-08-02T12:52:49;25.10;99.90
38902;DHT22;24661;53.566;9.910;2022-08-02T12:55:20;25.10;99.90
38902;DHT22;24661;53.566;9.910;2022-08-02T13:00:28;25.20;99.90
38902;DHT22;24661;53.566;9.910;2022-08-02T13:02:55;25.20;99.90
38902;DHT22;24661;53.566;9.910;2022-08-02T13:05:21;25.20;99.90
38902;DHT22;24661;53.566;9.910;2022-08-02T13:07:48;25.30;99.90
38902;DHT22;24661;53.566;9.910;2022-08-02T13:10:13;25.40;99.90
38902;DHT22;24661;53.566;9.910;2022-08-02T13:12:39;25.40;99.90
38902;DHT22;24661;53.566;9.910;2022-08-02T13:15:08;25.40;99.90
38902;DHT22;24661;53.566;9.910;2022-08-02T13:17:35;25.40;99.90
38902;DHT22;24661;53.566;9.910;2022-08-02T13:20:00;25.30;99.90
38902;DHT22;24661;53.566;9.910;2022-08-02T13:22:26;25.40;99.90
38902;DHT22;24661;53.566;9.910;2022-08-02T13:24:52;25.40;99.90
38902;DHT22;24661;53.566;9.910;2022-08-02T13:27:18;25.40;99.90
38902;DHT22;24661;53.566;9.910;2022-08-02T13:29:44;25.40;99.90
38902;DHT22;24661;53.566;9.910;2022-08-02T13:32:10;25.40;99.90
38902;DHT22;24661;53.566;9.910;2022-08-02T13:34:36;25.40;99.90
38902;DHT22;24661;53.566;9.910;2022-08-02T13:37:02;25.40;99.90
38902;DHT22;24661;53.566;9.910;2022-08-02T13:39:29;25.30;99.90
38902;DHT22;24661;53.566;9.910;2022-08-02T13:41:56;25.50;99.90
38902;DHT22;24661;53.566;9.910;2022-08-02T13:44:22;25.50;99.90
38902;DHT22;24661;53.566;9.910;2022-08-02T13:46:47;25.50;99.90
38902;DHT22;24661;53.566;9.910;2022-08-02T13:49:13;25.60;99.90
38902;DHT22;24661;53.566;9.910;2022-08-02T13:51:39;25.70;99.90
38902;DHT22;24661;53.566;9.910;2022-08-02T13:54:06;25.70;99.90
38902;DHT22;24661;53.566;9.910;2022-08-02T13:56:31;25.80;99.90
38902;DHT22;24661;53.566;9.910;2022-08-02T13:58:57;25.80;99.90
38902;DHT22;24661;53.566;9.910;2022-08-02T14:01:26;25.90;99.90
38902;DHT22;24661;53.566;9.910;2022-08-02T14:03:52;25.70;99.90
38902;DHT22;24661;53.566;9.910;2022-08-02T14:06:21;25.80;99.90
38902;DHT22;24661;53.566;9.910;2022-08-02T14:08:47;25.80;99.90
38902;DHT22;24661;53.566;9.910;2022-08-02T14:11:13;25.80;99.90
38902;DHT22;24661;53.566;9.910;2022-08-02T14:13:39;25.80;99.90
38902;DHT22;24661;53.566;9.910;2022-08-02T14:16:05;25.90;99.90
38902;DHT22;24661;53.566;9.910;2022-08-02T14:18:30;26.00;99.90
38902;DHT22;24661;53.566;9.910;2022-08-02T14:20:56;26.00;99.90
38902;DHT22;24661;53.566;9.910;2022-08-02T14:23:22;26.00;99.90
38902;DHT22;24661;53.566;9.910;2022-08-02T14:25:48;25.80;99.90
38902;DHT22;24661;53.566;9.910;2022-08-02T14:28:14;25.90;99.90
38902;DHT22;24661;53.566;9.910;2022-08-02T14:30:40;25.90;99.90
38902;DHT22;24661;53.566;9.910;2022-08-02T14:33:06;26.00;99.90
38902;DHT22;24661;53.566;9.910;2022-08-02T14:35:31;26.00;99.90
38902;DHT22;24661;53.566;9.910;2022-08-02T14:37:57;26.00;99.90
38902;DHT22;24661;53.566;9.910;2022-08-02T14:40:23;26.10;99.90
38902;DHT22;24661;53.566;9.910;2022-08-02T14:42:50;26.00;99.90
38902;DHT22;24661;53.566;9.910;2022-08-02T14:45:17;26.00;99.90
38902;DHT22;24661;53.566;9.910;2022-08-02T14:47:43;26.00;99.90
38902;DHT22;24661;53.566;9.910;2022-08-02T14:50:09;26.10;99.90
38902;DHT22;24661;53.566;9.910;2022-08-02T14:52:36;26.00;99.90
38902;DHT22;24661;53.566;9.910;2022-08-02T14:55:02;26.00;99.90
38902;DHT22;24661;53.566;9.910;2022-08-02T14:57:30;26.00;99.90
38902;DHT22;24661;53.566;9.910;2022-08-02T14:59:56;26.00;99.90
38902;DHT22;24661;53.566;9.910;2022-08-02T15:02:25;26.00;99.90
38902;DHT22;24661;53.566;9.910;2022-08-02T15:04:51;26.10;99.90
38902;DHT22;24661;53.566;9.910;2022-08-02T15:07:17;26.00;99.90
38902;DHT22;24661;53.566;9.910;2022-08-02T15:09:42;26.00;99.90
38902;DHT22;24661;53.566;9.910;2022-08-02T15:12:09;26.10;99.90
38902;DHT22;24661;53.566;9.910;2022-08-02T15:14:36;26.10;99.90
38902;DHT22;24661;53.566;9.910;2022-08-02T15:17:02;26.00;99.90
38902;DHT22;24661;53.566;9.910;2022-08-02T15:19:28;26.00;99.90
38902;DHT22;24661;53.566;9.910;2022-08-02T15:21:54;26.00;99.90
38902;DHT22;24661;53.566;9.910;2022-08-02T15:24:20;26.00;99.90
38902;DHT22;24661;53.566;9.910;2022-08-02T15:26:45;25.90;99.90
38902;DHT22;24661;53.566;9.910;2022-08-02T15:29:11;25.80;99.90
38902;DHT22;24661;53.566;9.910;2022-08-02T15:31:36;25.70;99.90
38902;DHT22;24661;53.566;9.910;2022-08-02T15:34:02;25.60;99.90
38902;DHT22;24661;53.566;9.910;2022-08-02T15:36:28;25.70;99.90
38902;DHT22;24661;53.566;9.910;2022-08-02T15:38:54;25.60;99.90
38902;DHT22;24661;53.566;9.910;2022-08-02T15:41:19;25.60;99.90
38902;DHT22;24661;53.566;9.910;2022-08-02T15:43:45;25.50;99.90
38902;DHT22;24661;53.566;9.910;2022-08-02T15:46:10;25.50;99.90
38902;DHT22;24661;53.566;9.910;2022-08-02T15:48:36;25.50;99.90
38902;DHT22;24661;53.566;9.910;2022-08-02T15:51:03;25.50;99.90
38902;DHT22;24661;53.566;9.910;2022-08-02T15:53:29;25.50;99.90
38902;DHT22;24661;53.566;9.910;2022-08-02T15:55:54;25.50;99.90
38902;DHT22;24661;53.566;9.910;2022-08-02T15:58:20;25.40;99.90
38902;DHT22;24661;53.566;9.910;2022-08-02T16:00:45;25.50;99.90
38902;DHT22;24661;53.566;9.910;2022-08-02T16:03:11;25.50;99.90
38902;DHT22;24661;53.566;9.910;2022-08-02T16:05:37;25.50;99.90
38902;DHT22;24661;53.566;9.910;2022-08-02T16:08:02;25.50;99.90